»·PEaware :: N12345 L45-KSNA

N12345 :: L45-KSNA

FLIGHT INFORMATION

Flight Status: Arrived
Operator: Privately registered:
United States
More flights under this callsign
Pilot: Alex K. (14822)
Aircraft: GULFSTREAM 690 COMMANDER 840/900
(AC90)
More flights by this aircraft type
Origin: L45 Bakersfield Mun
United States
Destination: KSNA John Wayne-Orange Co
United States
More flights between these airports :: More routes between these airports
Route: +LHS V459 SLI
File this flight plan on PilotEdge
Remarks: oofda der guy
Altitude:
(Current/Filed)
17,000ft
Speed:
(Current/Filed)
250kts
Departed: 06-Nov-19 10:11 AM
Arrived: 06-Nov-19 10:57 AM
Distance/Time
Traveled:
114nm/0:45
Distance/Time
To Go:
Arrived

Flight Plot

Page will automatically refresh every two minutes.

Flight plan parsing failed; only flown route is shown


Map Options




Map Legend


Flown Route
Filed Route
Departure Airport
Arrival Airport
Navaid (VOR, NDB)
Fix

Horizontal Profiles

Position Reports

Time Latitude Longitude Heading Altitude Ground
Speed
06-Nov-19 10:06 35.331571 -119.001372 3 384ft 0kts
06-Nov-19 10:07 35.331571 -119.001372 3 384ft 0kts
06-Nov-19 10:08 35.330149 -118.999416 107 382ft 15kts
06-Nov-19 10:09 35.330238 -118.997465 84 379ft 0kts
06-Nov-19 10:10 35.324844 -118.996037 175 450ft 112kts
06-Nov-19 10:11 35.288755 -118.973443 147 2445ft 166kts
06-Nov-19 10:12 35.247749 -118.945286 152 4731ft 172kts
06-Nov-19 10:13 35.204880 -118.917151 152 7171ft 178kts
06-Nov-19 10:14 35.160588 -118.888104 151 9434ft 186kts
06-Nov-19 10:15 35.114096 -118.857661 150 11407ft 194kts
06-Nov-19 10:16 35.064771 -118.825367 150 13119ft 221kts
06-Nov-19 10:17 35.001230 -118.783792 150 13090ft 281kts
06-Nov-19 10:18 34.930525 -118.737680 150 13097ft 290kts
06-Nov-19 10:19 34.859265 -118.691309 150 13106ft 288kts
06-Nov-19 10:20 34.788025 -118.645013 151 13113ft 290kts
06-Nov-19 10:21 34.716420 -118.598616 151 13119ft 291kts
06-Nov-19 10:22 34.643980 -118.554067 153 13123ft 292kts
06-Nov-19 10:23 34.570694 -118.511111 153 13100ft 293kts
06-Nov-19 10:24 34.497161 -118.468096 153 13065ft 294kts
06-Nov-19 10:25 34.423524 -118.425092 153 13044ft 294kts
06-Nov-19 10:26 34.349746 -118.382094 153 13033ft 293kts
06-Nov-19 10:27 34.276646 -118.339581 153 13018ft 294kts
06-Nov-19 10:28 34.202423 -118.296493 153 12991ft 294kts
06-Nov-19 10:29 34.128474 -118.253652 153 12985ft 293kts
06-Nov-19 10:30 34.054801 -118.211052 153 12985ft 293kts
06-Nov-19 10:31 33.981092 -118.168510 153 12991ft 293kts
06-Nov-19 10:33 33.904738 -118.149989 191 12224ft 287kts
06-Nov-19 10:34 33.827557 -118.168329 192 10471ft 274kts
06-Nov-19 10:35 33.754653 -118.186669 192 8731ft 261kts
06-Nov-19 10:36 33.684484 -118.204760 192 7058ft 253kts
06-Nov-19 10:37 33.621575 -118.220328 180 6994ft 213kts
06-Nov-19 10:38 33.608283 -118.165847 52 6594ft 201kts
06-Nov-19 10:39 33.649718 -118.120486 41 5521ft 200kts
06-Nov-19 10:40 33.690947 -118.077167 41 5012ft 199kts
06-Nov-19 10:41 33.735130 -118.030913 41 5002ft 217kts
06-Nov-19 10:42 33.781293 -117.982628 41 5000ft 221kts
06-Nov-19 10:43 33.827690 -117.934105 41 5000ft 221kts
06-Nov-19 10:44 33.874225 -117.885414 41 5000ft 222kts
06-Nov-19 10:45 33.920822 -117.836646 41 5001ft 221kts
06-Nov-19 10:46 33.943044 -117.778377 119 4416ft 217kts
06-Nov-19 10:47 33.913920 -117.719757 121 3992ft 183kts
06-Nov-19 10:48 33.881428 -117.685420 206 4007ft 164kts
06-Nov-19 10:49 33.850362 -117.724272 232 3325ft 163kts
06-Nov-19 10:50 33.824446 -117.766220 242 2986ft 139kts
06-Nov-19 10:51 33.798151 -117.791097 207 2679ft 114kts
06-Nov-19 10:52 33.772027 -117.807761 207 2085ft 101kts
06-Nov-19 10:53 33.746820 -117.823728 207 1552ft 107kts
06-Nov-19 10:53 33.724772 -117.837762 208 1033ft 101kts
06-Nov-19 10:55 33.696656 -117.855577 207 432ft 101kts
06-Nov-19 10:55 33.676743 -117.868167 207 59ft 62kts
06-Nov-19 10:56 33.671364 -117.873046 207 59ft 8kts
06-Nov-19 10:58 33.668041 -117.874196 117 59ft 12kts
06-Nov-19 10:58 33.665772 -117.873546 123 59ft 9kts
06-Nov-19 11:00 33.665590 -117.873410 216 59ft 0kts
06-Nov-19 11:00 33.665590 -117.873410 216 59ft 0kts
06-Nov-19 11:01 33.665590 -117.873410 216 59ft 0kts

Navigation Log

Ident Type
Flight plan parsing failed, navigation log unavailable